Time,TemperatureF,DewpointF,PressureIn,WindDirection,WindDirectionDegrees,WindSpeedMPH,WindSpeedGustMPH,Humidity,HourlyPrecipIn,Conditions,Clouds,dailyrainin,SoftwareType,DateUTC
2016-02-12 08:13:00,52.0,31.0,-100.00,WSW,252,1.0,6.0,45,-99.99,,,-99.99,,2016-02-12 16:13:00,
2016-02-12 08:23:00,52.0,31.0,-100.00,WSW,252,1.0,6.0,45,-99.99,,,-99.99,,2016-02-12 16:23:00,
2016-02-12 09:13:00,61.0,29.0,-100.00,North,2,4.0,6.0,30,-99.99,,,-99.99,,2016-02-12 17:13:00,
2016-02-12 09:23:00,61.0,29.0,-100.00,North,2,4.0,6.0,30,-99.99,,,-99.99,,2016-02-12 17:23:00,
2016-02-12 09:33:00,61.0,29.0,-100.00,North,2,4.0,6.0,30,-99.99,,,-99.99,,2016-02-12 17:33:00,
2016-02-12 09:43:00,61.0,29.0,-100.00,North,2,4.0,6.0,30,-99.99,,,-99.99,,2016-02-12 17:43:00,
2016-02-12 10:13:00,68.0,30.0,-100.00,North,2,6.0,8.0,24,-99.99,,,-99.99,,2016-02-12 18:13:00,
2016-02-12 10:23:00,68.0,30.0,-100.00,North,2,6.0,8.0,24,-99.99,,,-99.99,,2016-02-12 18:23:00,
2016-02-12 10:43:00,68.0,30.0,-100.00,North,2,6.0,8.0,24,-99.99,,,-99.99,,2016-02-12 18:43:00,
2016-02-12 11:12:00,72.0,31.0,-100.00,North,359,6.0,12.0,22,-99.99,,,-99.99,,2016-02-12 19:12:00,
2016-02-12 12:12:00,76.0,33.0,-100.00,North,354,8.0,14.0,21,-99.99,,,-99.99,,2016-02-12 20:12:00,
2016-02-12 12:23:00,76.0,33.0,-100.00,North,354,8.0,14.0,21,-99.99,,,-99.99,,2016-02-12 20:23:00,
2016-02-12 12:34:00,76.0,33.0,-100.00,North,354,8.0,14.0,21,-99.99,,,-99.99,,2016-02-12 20:34:00,
2016-02-12 12:44:00,76.0,33.0,-100.00,North,354,8.0,14.0,21,-99.99,,,-99.99,,2016-02-12 20:44:00,
2016-02-12 13:13:00,80.0,33.0,-100.00,NNW,346,7.0,14.0,18,-99.99,,,-99.99,,2016-02-12 21:13:00,
2016-02-12 13:23:00,80.0,33.0,-100.00,NNW,346,7.0,14.0,18,-99.99,,,-99.99,,2016-02-12 21:23:00,
2016-02-12 13:33:00,80.0,33.0,-100.00,NNW,346,7.0,14.0,18,-99.99,,,-99.99,,2016-02-12 21:33:00,
2016-02-12 13:43:00,80.0,33.0,-100.00,NNW,346,7.0,14.0,18,-99.99,,,-99.99,,2016-02-12 21:43:00,
2016-02-12 14:13:00,82.0,28.0,-100.00,North,358,8.0,13.0,14,-99.99,,,-99.99,,2016-02-12 22:13:00,
2016-02-12 14:23:00,82.0,28.0,-100.00,North,358,8.0,13.0,14,-99.99,,,-99.99,,2016-02-12 22:23:00,
2016-02-12 14:36:00,82.0,28.0,-100.00,North,358,8.0,13.0,14,-99.99,,,-99.99,,2016-02-12 22:36:00,
2016-02-12 15:23:00,83.0,29.0,-100.00,North,351,7.0,13.0,14,-99.99,,,-99.99,,2016-02-12 23:23:00,
2016-02-12 15:33:00,83.0,29.0,-100.00,North,351,7.0,13.0,14,-99.99,,,-99.99,,2016-02-12 23:33:00,
2016-02-12 15:43:00,83.0,29.0,-100.00,North,351,7.0,13.0,14,-99.99,,,-99.99,,2016-02-12 23:43:00,
2016-02-12 16:33:00,84.0,28.0,-100.00,NNW,340,6.0,12.0,13,-99.99,,,-99.99,,2016-02-13 00:33:00,
2016-02-12 16:43:00,84.0,28.0,-100.00,NNW,340,6.0,12.0,13,-99.99,,,-99.99,,2016-02-13 00:43:00,
2016-02-12 17:13:00,81.0,32.0,-100.00,North,6,4.0,9.0,17,-99.99,,,-99.99,,2016-02-13 01:13:00,
2016-02-12 17:23:00,81.0,32.0,-100.00,North,6,4.0,9.0,17,-99.99,,,-99.99,,2016-02-13 01:23:00,
2016-02-12 17:33:00,81.0,32.0,-100.00,North,6,4.0,9.0,17,-99.99,,,-99.99,,2016-02-13 01:33:00,
2016-02-12 17:43:00,81.0,32.0,-100.00,North,6,4.0,9.0,17,-99.99,,,-99.99,,2016-02-13 01:43:00,